If you wish to contribute or participate in the discussions about articles you are invited to join SKYbrary as a registered user

 Actions

Cap FAP David Abenzur Rengifo International Airport

From SKYbrary Wiki

SPCL
Airport
ICAO: SPCL – IATA: PCL
Summary
Name Cap FAP David Abenzur Rengifo International Airport
Region South America and Caribbean
Territory Peru PE.gif
Location Pucallpa, Ucayali
Serving Pucallpa
Elevation 156.362 m
513 ft
513 ft156.362 m
Type medium airport
Coordinates 8° 22' 40.58" S, 74° 34' 27.47" W
Runways
Designator Length Width Surface ROPS
2/20 2800 m9,186.352 ft
45 m147.638 ft
ASP /


METAR
Observation SPCL 131200Z 35001KT 9999 BKN020 23/22 Q1014 RMK TN22.0 PP000
Station Pucallpa
Date/Time 13 October 2019 12:00:00
Wind direction 350°
Wind speed 01 kts
Lowest cloud amount broken clouds
Temperature 23°C
Dew point 22°C
Humidity 94%
QNH 1014 hPa
Weather condition n/a

airport serving the city of Pucallpa in the Ucayali Region of Peru.

Climatology

Tropical Monsoon climate (Köppen climate classification Am).

Maps

Terrain

Loading map...

Airport Layout

Loading map...


Accidents & Serious Incidents at or in vicinity of SPCL

None on SKYbrary